sensor_id;sensor_type;location;lat;lon;timestamp;pressure;altitude;pressure_sealevel;temperature;humidity
9764;BME280;4921;43.214;27.936;2023-07-29T00:00:46;100780.69;;;23.11;100.00
9764;BME280;4921;43.214;27.936;2023-07-29T00:03:13;100779.25;;;23.15;100.00
9764;BME280;4921;43.214;27.936;2023-07-29T00:05:41;100779.66;;;23.18;100.00
9764;BME280;4921;43.214;27.936;2023-07-29T00:08:08;100777.66;;;23.20;100.00
9764;BME280;4921;43.214;27.936;2023-07-29T00:10:37;100773.06;;;23.21;100.00
9764;BME280;4921;43.214;27.936;2023-07-29T00:13:06;100765.66;;;23.23;100.00
9764;BME280;4921;43.214;27.936;2023-07-29T00:15:33;100771.81;;;23.17;100.00
9764;BME280;4921;43.214;27.936;2023-07-29T00:18:00;100768.94;;;23.18;100.00
9764;BME280;4921;43.214;27.936;2023-07-29T00:20:27;100765.25;;;23.19;100.00
9764;BME280;4921;43.214;27.936;2023-07-29T00:22:54;100772.69;;;23.24;100.00
9764;BME280;4921;43.214;27.936;2023-07-29T00:25:23;100765.44;;;23.18;100.00
9764;BME280;4921;43.214;27.936;2023-07-29T00:27:50;100772.44;;;23.19;100.00
9764;BME280;4921;43.214;27.936;2023-07-29T00:30:19;100758.19;;;23.18;100.00
9764;BME280;4921;43.214;27.936;2023-07-29T00:32:46;100761.31;;;23.15;100.00
9764;BME280;4921;43.214;27.936;2023-07-29T00:35:13;100761.50;;;23.14;100.00
9764;BME280;4921;43.214;27.936;2023-07-29T00:37:40;100751.38;;;23.09;100.00
9764;BME280;4921;43.214;27.936;2023-07-29T00:40:14;100755.91;;;23.09;100.00
9764;BME280;4921;43.214;27.936;2023-07-29T00:42:41;100755.03;;;23.02;100.00
9764;BME280;4921;43.214;27.936;2023-07-29T00:45:09;100750.50;;;23.02;100.00
9764;BME280;4921;43.214;27.936;2023-07-29T00:47:37;100744.31;;;23.02;100.00
9764;BME280;4921;43.214;27.936;2023-07-29T00:50:05;100737.69;;;22.98;100.00
9764;BME280;4921;43.214;27.936;2023-07-29T00:52:33;100743.28;;;23.03;100.00
9764;BME280;4921;43.214;27.936;2023-07-29T00:55:00;100741.84;;;23.00;100.00
9764;BME280;4921;43.214;27.936;2023-07-29T00:57:29;100741.22;;;22.98;100.00
9764;BME280;4921;43.214;27.936;2023-07-29T00:59:56;100739.75;;;22.96;100.00
9764;BME280;4921;43.214;27.936;2023-07-29T01:02:24;100737.09;;;23.02;100.00
9764;BME280;4921;43.214;27.936;2023-07-29T01:04:53;100725.91;;;22.92;100.00
9764;BME280;4921;43.214;27.936;2023-07-29T01:07:25;100732.13;;;22.99;100.00
9764;BME280;4921;43.214;27.936;2023-07-29T01:10:01;100734.41;;;23.02;100.00
9764;BME280;4921;43.214;27.936;2023-07-29T01:12:35;100738.56;;;23.05;100.00
9764;BME280;4921;43.214;27.936;2023-07-29T01:15:10;100725.75;;;23.07;100.00
9764;BME280;4921;43.214;27.936;2023-07-29T01:17:42;100719.78;;;23.05;100.00
9764;BME280;4921;43.214;27.936;2023-07-29T01:20:14;100719.78;;;23.05;100.00
9764;BME280;4921;43.214;27.936;2023-07-29T01:22:42;100719.56;;;23.06;100.00
9764;BME280;4921;43.214;27.936;2023-07-29T01:25:10;100727.00;;;23.04;100.00
9764;BME280;4921;43.214;27.936;2023-07-29T01:27:37;100728.84;;;23.04;100.00
9764;BME280;4921;43.214;27.936;2023-07-29T01:30:05;100724.31;;;23.04;100.00
9764;BME280;4921;43.214;27.936;2023-07-29T01:32:38;100710.50;;;23.07;100.00
9764;BME280;4921;43.214;27.936;2023-07-29T01:35:15;100712.13;;;23.08;100.00
9764;BME280;4921;43.214;27.936;2023-07-29T01:37:48;100712.13;;;23.08;100.00
9764;BME280;4921;43.214;27.936;2023-07-29T01:40:18;100717.09;;;23.05;100.00
9764;BME280;4921;43.214;27.936;2023-07-29T01:42:45;100709.66;;;23.07;100.00
9764;BME280;4921;43.214;27.936;2023-07-29T01:45:12;100712.56;;;23.05;100.00
9764;BME280;4921;43.214;27.936;2023-07-29T01:47:40;100721.41;;;23.06;100.00
9764;BME280;4921;43.214;27.936;2023-07-29T01:50:08;100722.25;;;23.06;100.00
9764;BME280;4921;43.214;27.936;2023-07-29T01:52:35;100719.94;;;23.03;100.00
9764;BME280;4921;43.214;27.936;2023-07-29T01:55:02;100719.94;;;23.03;100.00
9764;BME280;4921;43.214;27.936;2023-07-29T01:57:30;100720.59;;;23.05;100.00
9764;BME280;4921;43.214;27.936;2023-07-29T01:59:58;100717.94;;;23.05;100.00
9764;BME280;4921;43.214;27.936;2023-07-29T02:02:25;100713.53;;;22.98;100.00
9764;BME280;4921;43.214;27.936;2023-07-29T02:04:52;100720.34;;;22.94;100.00
9764;BME280;4921;43.214;27.936;2023-07-29T02:07:21;100722.44;;;22.98;100.00
9764;BME280;4921;43.214;27.936;2023-07-29T02:09:48;100726.75;;;22.99;100.00
9764;BME280;4921;43.214;27.936;2023-07-29T02:12:15;100720.38;;;23.00;100.00
9764;BME280;4921;43.214;27.936;2023-07-29T02:14:44;100723.25;;;22.99;100.00
9764;BME280;4921;43.214;27.936;2023-07-29T02:17:11;100714.97;;;22.94;100.00
9764;BME280;4921;43.214;27.936;2023-07-29T02:19:38;100714.78;;;22.95;100.00
9764;BME280;4921;43.214;27.936;2023-07-29T02:22:05;100717.06;;;22.98;100.00
9764;BME280;4921;43.214;27.936;2023-07-29T02:24:32;100717.91;;;22.99;100.00
9764;BME280;4921;43.214;27.936;2023-07-29T02:26:59;100726.97;;;22.98;100.00
9764;BME280;4921;43.214;27.936;2023-07-29T02:29:26;100712.28;;;22.94;100.00
9764;BME280;4921;43.214;27.936;2023-07-29T02:31:54;100713.72;;;22.90;100.00
9764;BME280;4921;43.214;27.936;2023-07-29T02:34:21;100708.09;;;22.78;100.00
9764;BME280;4921;43.214;27.936;2023-07-29T02:36:48;100714.25;;;22.72;100.00
9764;BME280;4921;43.214;27.936;2023-07-29T02:39:15;100720.84;;;22.69;100.00
9764;BME280;4921;43.214;27.936;2023-07-29T02:41:42;100719.16;;;22.62;100.00
9764;BME280;4921;43.214;27.936;2023-07-29T02:44:09;100727.38;;;22.60;100.00
9764;BME280;4921;43.214;27.936;2023-07-29T02:46:36;100718.66;;;22.58;100.00
9764;BME280;4921;43.214;27.936;2023-07-29T02:49:05;100724.03;;;22.58;100.00
9764;BME280;4921;43.214;27.936;2023-07-29T02:51:32;100731.66;;;22.55;100.00
9764;BME280;4921;43.214;27.936;2023-07-29T02:53:59;100733.44;;;22.48;100.00
9764;BME280;4921;43.214;27.936;2023-07-29T02:56:26;100737.72;;;22.36;100.00
9764;BME280;4921;43.214;27.936;2023-07-29T02:58:53;100735.59;;;22.31;100.00
9764;BME280;4921;43.214;27.936;2023-07-29T03:01:20;100735.59;;;22.31;100.00
9764;BME280;4921;43.214;27.936;2023-07-29T03:03:47;100730.50;;;22.36;100.00
9764;BME280;4921;43.214;27.936;2023-07-29T03:06:15;100734.00;;;22.37;100.00
9764;BME280;4921;43.214;27.936;2023-07-29T03:08:42;100726.56;;;22.39;100.00
9764;BME280;4921;43.214;27.936;2023-07-29T03:11:12;100703.41;;;22.25;100.00
9764;BME280;4921;43.214;27.936;2023-07-29T03:13:39;100728.78;;;22.29;100.00
9764;BME280;4921;43.214;27.936;2023-07-29T03:16:06;100727.25;;;22.20;100.00
9764;BME280;4921;43.214;27.936;2023-07-29T03:18:34;100730.53;;;22.15;100.00
9764;BME280;4921;43.214;27.936;2023-07-29T03:21:01;100728.69;;;22.16;100.00
9764;BME280;4921;43.214;27.936;2023-07-29T03:23:31;100737.56;;;22.16;100.00
9764;BME280;4921;43.214;27.936;2023-07-29T03:26:00;100730.09;;;22.12;100.00
9764;BME280;4921;43.214;27.936;2023-07-29T03:28:31;100738.19;;;22.18;100.00
9764;BME280;4921;43.214;27.936;2023-07-29T03:30:59;100731.72;;;22.13;100.00
9764;BME280;4921;43.214;27.936;2023-07-29T03:33:26;100734.63;;;22.11;100.00
9764;BME280;4921;43.214;27.936;2023-07-29T03:35:53;100741.81;;;22.11;100.00
9764;BME280;4921;43.214;27.936;2023-07-29T03:38:20;100741.19;;;22.09;100.00
9764;BME280;4921;43.214;27.936;2023-07-29T03:40:48;100737.06;;;22.06;100.00
9764;BME280;4921;43.214;27.936;2023-07-29T03:43:15;100740.38;;;22.08;100.00
9764;BME280;4921;43.214;27.936;2023-07-29T03:45:42;100748.22;;;22.10;100.00
9764;BME280;4921;43.214;27.936;2023-07-29T03:48:09;100741.88;;;22.17;100.00
9764;BME280;4921;43.214;27.936;2023-07-29T03:50:37;100745.00;;;22.21;100.00
9764;BME280;4921;43.214;27.936;2023-07-29T03:53:04;100741.34;;;22.28;100.00
9764;BME280;4921;43.214;27.936;2023-07-29T03:55:32;100743.25;;;22.34;100.00
9764;BME280;4921;43.214;27.936;2023-07-29T03:58:00;100740.19;;;22.37;100.00
9764;BME280;4921;43.214;27.936;2023-07-29T04:00:27;100748.84;;;22.39;100.00
9764;BME280;4921;43.214;27.936;2023-07-29T04:02:54;100745.59;;;22.44;100.00
9764;BME280;4921;43.214;27.936;2023-07-29T04:05:21;100745.22;;;22.47;100.00
9764;BME280;4921;43.214;27.936;2023-07-29T04:07:48;100741.75;;;22.53;100.00
9764;BME280;4921;43.214;27.936;2023-07-29T04:10:15;100742.78;;;22.58;100.00
9764;BME280;4921;43.214;27.936;2023-07-29T04:12:43;100743.72;;;22.65;100.00
9764;BME280;4921;43.214;27.936;2023-07-29T04:15:11;100744.75;;;22.71;100.00
9764;BME280;4921;43.214;27.936;2023-07-29T04:17:38;100749.97;;;22.79;100.00
9764;BME280;4921;43.214;27.936;2023-07-29T04:20:07;100753.72;;;22.85;100.00
9764;BME280;4921;43.214;27.936;2023-07-29T04:22:34;100754.97;;;22.89;100.00
9764;BME280;4921;43.214;27.936;2023-07-29T04:25:01;100756.06;;;22.94;100.00
9764;BME280;4921;43.214;27.936;2023-07-29T04:27:30;100748.41;;;22.98;100.00
9764;BME280;4921;43.214;27.936;2023-07-29T04:29:57;100753.19;;;23.02;100.00
9764;BME280;4921;43.214;27.936;2023-07-29T04:32:25;100753.44;;;23.07;100.00
9764;BME280;4921;43.214;27.936;2023-07-29T04:34:52;100755.53;;;23.12;100.00
9764;BME280;4921;43.214;27.936;2023-07-29T04:37:19;100755.94;;;23.15;100.00
9764;BME280;4921;43.214;27.936;2023-07-29T04:39:46;100756.34;;;23.19;100.00
9764;BME280;4921;43.214;27.936;2023-07-29T04:42:13;100753.28;;;23.22;100.00
9764;BME280;4921;43.214;27.936;2023-07-29T04:44:40;100758.84;;;23.27;100.00
9764;BME280;4921;43.214;27.936;2023-07-29T04:47:10;100760.94;;;23.31;100.00
9764;BME280;4921;43.214;27.936;2023-07-29T04:49:38;100763.25;;;23.34;100.00
9764;BME280;4921;43.214;27.936;2023-07-29T04:52:06;100770.94;;;23.37;100.00
9764;BME280;4921;43.214;27.936;2023-07-29T04:54:33;100773.81;;;23.42;100.00
9764;BME280;4921;43.214;27.936;2023-07-29T04:57:00;100777.34;;;23.43;100.00
9764;BME280;4921;43.214;27.936;2023-07-29T04:59:27;100781.28;;;23.47;100.00
9764;BME280;4921;43.214;27.936;2023-07-29T05:01:54;100777.34;;;23.49;100.00
9764;BME280;4921;43.214;27.936;2023-07-29T05:04:21;100779.66;;;23.53;100.00
9764;BME280;4921;43.214;27.936;2023-07-29T05:06:50;100782.53;;;23.58;100.00
9764;BME280;4921;43.214;27.936;2023-07-29T05:09:18;100780.09;;;23.63;100.00
9764;BME280;4921;43.214;27.936;2023-07-29T05:11:45;100773.28;;;23.67;100.00
9764;BME280;4921;43.214;27.936;2023-07-29T05:14:14;100776.19;;;23.72;100.00
9764;BME280;4921;43.214;27.936;2023-07-29T05:16:41;100777.44;;;23.76;100.00
9764;BME280;4921;43.214;27.936;2023-07-29T05:19:08;100778.47;;;23.81;100.00
9764;BME280;4921;43.214;27.936;2023-07-29T05:21:35;100781.38;;;23.86;100.00
9764;BME280;4921;43.214;27.936;2023-07-29T05:24:03;100772.09;;;23.89;100.00
9764;BME280;4921;43.214;27.936;2023-07-29T05:26:30;100774.78;;;23.95;100.00
9764;BME280;4921;43.214;27.936;2023-07-29T05:28:58;100772.50;;;23.99;100.00
9764;BME280;4921;43.214;27.936;2023-07-29T05:31:24;100777.25;;;24.03;100.00
9764;BME280;4921;43.214;27.936;2023-07-29T05:33:51;100773.16;;;24.07;100.00
9764;BME280;4921;43.214;27.936;2023-07-29T05:36:18;100771.72;;;24.11;100.00
9764;BME280;4921;43.214;27.936;2023-07-29T05:38:45;100780.81;;;24.17;100.00
9764;BME280;4921;43.214;27.936;2023-07-29T05:41:14;100778.31;;;24.22;100.00
9764;BME280;4921;43.214;27.936;2023-07-29T05:43:43;100774.41;;;24.24;100.00
9764;BME280;4921;43.214;27.936;2023-07-29T05:46:10;100778.53;;;24.27;100.00
9764;BME280;4921;43.214;27.936;2023-07-29T05:48:37;100780.41;;;24.33;100.00
9764;BME280;4921;43.214;27.936;2023-07-29T05:51:04;100775.44;;;24.37;100.00
9764;BME280;4921;43.214;27.936;2023-07-29T05:53:31;100775.84;;;24.40;100.00
9764;BME280;4921;43.214;27.936;2023-07-29T05:55:58;100777.09;;;24.44;100.00
9764;BME280;4921;43.214;27.936;2023-07-29T05:58:27;100778.13;;;24.50;100.00
9764;BME280;4921;43.214;27.936;2023-07-29T06:00:56;100781.22;;;24.53;100.00
9764;BME280;4921;43.214;27.936;2023-07-29T06:03:23;100775.00;;;24.59;100.00
9764;BME280;4921;43.214;27.936;2023-07-29T06:05:50;100777.06;;;24.64;100.00
9764;BME280;4921;43.214;27.936;2023-07-29T06:08:17;100776.44;;;24.68;100.00
9764;BME280;4921;43.214;27.936;2023-07-29T06:10:44;100767.97;;;24.71;100.00
9764;BME280;4921;43.214;27.936;2023-07-29T06:13:11;100764.66;;;24.76;100.00
9764;BME280;4921;43.214;27.936;2023-07-29T06:15:39;100769.63;;;24.79;100.00
9764;BME280;4921;43.214;27.936;2023-07-29T06:18:06;100769.00;;;24.83;100.00
9764;BME280;4921;43.214;27.936;2023-07-29T06:20:33;100778.28;;;24.87;100.00
9764;BME280;4921;43.214;27.936;2023-07-29T06:23:00;100777.06;;;24.90;100.00
9764;BME280;4921;43.214;27.936;2023-07-29T06:25:27;100772.06;;;24.93;100.00
9764;BME280;4921;43.214;27.936;2023-07-29T06:27:54;100770.81;;;24.96;100.00
9764;BME280;4921;43.214;27.936;2023-07-29T06:30:21;100773.47;;;25.03;100.00
9764;BME280;4921;43.214;27.936;2023-07-29T06:32:49;100769.56;;;25.05;100.00
9764;BME280;4921;43.214;27.936;2023-07-29T06:35:16;100782.56;;;25.08;100.00
9764;BME280;4921;43.214;27.936;2023-07-29T06:37:43;100767.84;;;25.11;100.00
9764;BME280;4921;43.214;27.936;2023-07-29T06:40:11;100774.28;;;25.16;100.00
9764;BME280;4921;43.214;27.936;2023-07-29T06:42:38;100779.03;;;25.21;100.00
9764;BME280;4921;43.214;27.936;2023-07-29T06:45:06;100778.38;;;25.25;100.00
9764;BME280;4921;43.214;27.936;2023-07-29T06:47:33;100779.38;;;25.31;100.00
9764;BME280;4921;43.214;27.936;2023-07-29T06:50:01;100779.59;;;25.36;100.00
9764;BME280;4921;43.214;27.936;2023-07-29T06:52:28;100777.28;;;25.39;100.00
9764;BME280;4921;43.214;27.936;2023-07-29T06:54:55;100782.88;;;25.44;100.00
9764;BME280;4921;43.214;27.936;2023-07-29T06:57:22;100776.03;;;25.48;100.00
9764;BME280;4921;43.214;27.936;2023-07-29T06:59:50;100776.41;;;25.52;100.00
9764;BME280;4921;43.214;27.936;2023-07-29T07:02:16;100771.22;;;25.57;100.00
9764;BME280;4921;43.214;27.936;2023-07-29T07:04:44;100762.69;;;25.60;99.42
9764;BME280;4921;43.214;27.936;2023-07-29T07:07:12;100772.81;;;25.64;98.63
9764;BME280;4921;43.214;27.936;2023-07-29T07:09:39;100770.06;;;25.71;99.33
9764;BME280;4921;43.214;27.936;2023-07-29T07:12:07;100769.88;;;25.73;96.62
9764;BME280;4921;43.214;27.936;2023-07-29T07:14:34;100773.56;;;25.78;94.13
9764;BME280;4921;43.214;27.936;2023-07-29T07:17:01;100770.22;;;25.83;92.24
9764;BME280;4921;43.214;27.936;2023-07-29T07:19:28;100770.19;;;25.89;89.38
9764;BME280;4921;43.214;27.936;2023-07-29T07:21:55;100771.16;;;25.95;87.07
9764;BME280;4921;43.214;27.936;2023-07-29T07:24:24;100775.06;;;25.99;83.60
9764;BME280;4921;43.214;27.936;2023-07-29T07:26:51;100784.38;;;26.09;84.34
9764;BME280;4921;43.214;27.936;2023-07-29T07:29:18;100777.50;;;26.13;81.50
9764;BME280;4921;43.214;27.936;2023-07-29T07:31:50;100761.69;;;26.17;79.90
9764;BME280;4921;43.214;27.936;2023-07-29T07:34:18;100775.31;;;26.28;77.64
9764;BME280;4921;43.214;27.936;2023-07-29T07:36:45;100770.88;;;26.34;73.69
9764;BME280;4921;43.214;27.936;2023-07-29T07:39:12;100767.53;;;26.38;71.22
9764;BME280;4921;43.214;27.936;2023-07-29T07:41:41;100767.69;;;26.43;66.92
9764;BME280;4921;43.214;27.936;2023-07-29T07:44:08;100759.59;;;26.43;65.43
9764;BME280;4921;43.214;27.936;2023-07-29T07:46:35;100765.91;;;26.56;64.98
9764;BME280;4921;43.214;27.936;2023-07-29T07:49:02;100762.72;;;26.65;65.07
9764;BME280;4921;43.214;27.936;2023-07-29T07:51:29;100762.84;;;26.70;63.88
9764;BME280;4921;43.214;27.936;2023-07-29T07:53:56;100754.72;;;26.77;62.94
9764;BME280;4921;43.214;27.936;2023-07-29T07:56:23;100761.47;;;26.86;61.02
9764;BME280;4921;43.214;27.936;2023-07-29T07:58:51;100753.53;;;26.91;60.65
9764;BME280;4921;43.214;27.936;2023-07-29T08:01:35;100757.19;;;26.96;59.91
9764;BME280;4921;43.214;27.936;2023-07-29T08:04:03;100756.53;;;27.01;60.17
9764;BME280;4921;43.214;27.936;2023-07-29T08:06:30;100755.19;;;27.10;53.88
9764;BME280;4921;43.214;27.936;2023-07-29T08:08:57;100752.16;;;27.18;50.87
9764;BME280;4921;43.214;27.936;2023-07-29T08:11:24;100744.66;;;27.20;51.92
9764;BME280;4921;43.214;27.936;2023-07-29T08:13:53;100750.38;;;27.12;54.18
9764;BME280;4921;43.214;27.936;2023-07-29T08:16:20;100744.91;;;27.00;52.17
9764;BME280;4921;43.214;27.936;2023-07-29T08:18:47;100741.16;;;26.83;53.04
9764;BME280;4921;43.214;27.936;2023-07-29T08:21:14;100745.72;;;27.01;53.93
9764;BME280;4921;43.214;27.936;2023-07-29T08:23:41;100743.78;;;27.08;55.22
9764;BME280;4921;43.214;27.936;2023-07-29T08:26:08;100745.66;;;27.07;59.51
9764;BME280;4921;43.214;27.936;2023-07-29T08:28:36;100716.47;;;26.98;59.71
9764;BME280;4921;43.214;27.936;2023-07-29T08:31:05;100740.84;;;27.09;59.54
9764;BME280;4921;43.214;27.936;2023-07-29T08:33:33;100731.91;;;27.09;62.11
9764;BME280;4921;43.214;27.936;2023-07-29T08:36:00;100738.63;;;27.06;60.79
9764;BME280;4921;43.214;27.936;2023-07-29T08:38:28;100729.69;;;27.06;61.14
9764;BME280;4921;43.214;27.936;2023-07-29T08:40:59;100717.22;;;27.05;62.08
9764;BME280;4921;43.214;27.936;2023-07-29T08:43:32;100718.72;;;27.01;66.09
9764;BME280;4921;43.214;27.936;2023-07-29T08:45:59;100718.56;;;26.96;62.28
9764;BME280;4921;43.214;27.936;2023-07-29T08:48:34;100718.81;;;26.94;65.97
9764;BME280;4921;43.214;27.936;2023-07-29T08:51:05;100716.56;;;26.73;73.83
9764;BME280;4921;43.214;27.936;2023-07-29T08:53:34;100720.91;;;26.74;73.18
9764;BME280;4921;43.214;27.936;2023-07-29T08:56:02;100710.63;;;26.65;74.68
9764;BME280;4921;43.214;27.936;2023-07-29T08:58:29;100703.91;;;26.74;73.61
9764;BME280;4921;43.214;27.936;2023-07-29T09:00:56;100700.53;;;26.78;74.39
9764;BME280;4921;43.214;27.936;2023-07-29T09:03:23;100699.38;;;26.86;73.58
9764;BME280;4921;43.214;27.936;2023-07-29T09:05:54;100696.47;;;26.87;73.35
9764;BME280;4921;43.214;27.936;2023-07-29T09:08:24;100694.06;;;26.79;76.27
9764;BME280;4921;43.214;27.936;2023-07-29T09:10:51;100695.19;;;26.72;77.81
9764;BME280;4921;43.214;27.936;2023-07-29T09:13:19;100687.75;;;26.49;72.74
9764;BME280;4921;43.214;27.936;2023-07-29T09:15:46;100697.75;;;26.42;78.88
9764;BME280;4921;43.214;27.936;2023-07-29T09:18:15;100696.38;;;26.58;75.30
9764;BME280;4921;43.214;27.936;2023-07-29T09:20:43;100695.13;;;26.35;97.05
9764;BME280;4921;43.214;27.936;2023-07-29T09:23:11;100698.78;;;26.23;100.00
9764;BME280;4921;43.214;27.936;2023-07-29T09:25:39;100689.59;;;26.06;100.00
9764;BME280;4921;43.214;27.936;2023-07-29T09:28:10;100687.72;;;26.06;100.00
9764;BME280;4921;43.214;27.936;2023-07-29T09:30:37;100689.88;;;26.22;97.32
9764;BME280;4921;43.214;27.936;2023-07-29T09:33:08;100690.28;;;26.44;97.38
9764;BME280;4921;43.214;27.936;2023-07-29T09:35:36;100694.19;;;26.66;96.24
9764;BME280;4921;43.214;27.936;2023-07-29T09:38:05;100692.69;;;26.70;84.56
9764;BME280;4921;43.214;27.936;2023-07-29T09:40:38;100694.06;;;26.79;87.21
9764;BME280;4921;43.214;27.936;2023-07-29T09:43:07;100673.88;;;26.64;88.15
9764;BME280;4921;43.214;27.936;2023-07-29T09:45:36;100692.47;;;26.90;92.30
9764;BME280;4921;43.214;27.936;2023-07-29T09:48:04;100686.50;;;26.70;92.98
9764;BME280;4921;43.214;27.936;2023-07-29T09:50:34;100680.66;;;26.91;90.87
9764;BME280;4921;43.214;27.936;2023-07-29T09:53:02;100684.28;;;27.14;87.83
9764;BME280;4921;43.214;27.936;2023-07-29T09:55:32;100689.13;;;27.42;87.77
9764;BME280;4921;43.214;27.936;2023-07-29T09:58:02;100687.44;;;27.41;92.16
9764;BME280;4921;43.214;27.936;2023-07-29T10:00:32;100700.06;;;27.47;96.81
9764;BME280;4921;43.214;27.936;2023-07-29T10:03:00;100685.72;;;27.47;100.00
9764;BME280;4921;43.214;27.936;2023-07-29T10:05:27;100691.03;;;27.65;100.00
9764;BME280;4921;43.214;27.936;2023-07-29T10:07:55;100682.03;;;27.11;100.00
9764;BME280;4921;43.214;27.936;2023-07-29T10:10:23;100694.75;;;26.75;100.00
9764;BME280;4921;43.214;27.936;2023-07-29T10:12:50;100687.97;;;26.48;100.00
9764;BME280;4921;43.214;27.936;2023-07-29T10:15:18;100687.09;;;26.72;100.00
9764;BME280;4921;43.214;27.936;2023-07-29T10:17:46;100664.75;;;26.65;100.00
9764;BME280;4921;43.214;27.936;2023-07-29T10:20:13;100694.44;;;26.65;100.00
9764;BME280;4921;43.214;27.936;2023-07-29T10:22:41;100695.53;;;26.39;100.00
9764;BME280;4921;43.214;27.936;2023-07-29T10:25:10;100695.09;;;26.60;100.00
9764;BME280;4921;43.214;27.936;2023-07-29T10:27:43;100684.97;;;26.56;100.00
9764;BME280;4921;43.214;27.936;2023-07-29T10:30:11;100678.88;;;26.42;100.00
9764;BME280;4921;43.214;27.936;2023-07-29T10:32:42;100694.59;;;26.27;100.00
9764;BME280;4921;43.214;27.936;2023-07-29T10:35:10;100695.72;;;26.37;100.00
9764;BME280;4921;43.214;27.936;2023-07-29T10:37:38;100697.09;;;26.28;100.00
9764;BME280;4921;43.214;27.936;2023-07-29T10:40:07;100695.53;;;26.39;100.00
9764;BME280;4921;43.214;27.936;2023-07-29T10:42:34;100696.25;;;26.28;100.00
9764;BME280;4921;43.214;27.936;2023-07-29T10:45:17;100693.84;;;26.20;100.00
9764;BME280;4921;43.214;27.936;2023-07-29T10:47:46;100690.28;;;26.44;100.00
9764;BME280;4921;43.214;27.936;2023-07-29T10:50:18;100686.56;;;26.63;100.00
9764;BME280;4921;43.214;27.936;2023-07-29T10:52:49;100683.19;;;26.50;100.00
9764;BME280;4921;43.214;27.936;2023-07-29T10:55:28;100684.59;;;26.70;100.00
9764;BME280;4921;43.214;27.936;2023-07-29T10:58:11;100676.72;;;26.51;100.00
9764;BME280;4921;43.214;27.936;2023-07-29T11:00:38;100679.50;;;26.62;100.00
9764;BME280;4921;43.214;27.936;2023-07-29T11:03:07;100681.44;;;26.55;100.00
9764;BME280;4921;43.214;27.936;2023-07-29T11:05:48;100689.44;;;26.86;100.00
9764;BME280;4921;43.214;27.936;2023-07-29T11:08:20;100677.41;;;27.00;100.00
9764;BME280;4921;43.214;27.936;2023-07-29T11:11:07;100680.47;;;26.68;100.00
9764;BME280;4921;43.214;27.936;2023-07-29T11:13:35;100681.91;;;26.88;100.00
9764;BME280;4921;43.214;27.936;2023-07-29T11:16:03;100686.69;;;27.04;100.00
9764;BME280;4921;43.214;27.936;2023-07-29T11:18:33;100679.66;;;26.85;100.00
9764;BME280;4921;43.214;27.936;2023-07-29T11:21:01;100684.63;;;27.06;100.00
9764;BME280;4921;43.214;27.936;2023-07-29T11:23:30;100685.16;;;27.27;100.00
9764;BME280;4921;43.214;27.936;2023-07-29T11:25:57;100684.41;;;27.19;100.00
9764;BME280;4921;43.214;27.936;2023-07-29T11:28:25;100670.97;;;26.83;100.00
9764;BME280;4921;43.214;27.936;2023-07-29T11:30:53;100675.94;;;26.86;100.00
9764;BME280;4921;43.214;27.936;2023-07-29T11:33:21;100677.50;;;26.76;100.00
9764;BME280;4921;43.214;27.936;2023-07-29T11:35:50;100673.31;;;26.80;100.00
9764;BME280;4921;43.214;27.936;2023-07-29T11:38:18;100670.38;;;26.81;100.00
9764;BME280;4921;43.214;27.936;2023-07-29T11:40:54;100673.75;;;26.77;100.00
9764;BME280;4921;43.214;27.936;2023-07-29T11:43:22;100675.25;;;26.55;100.00
9764;BME280;4921;43.214;27.936;2023-07-29T11:45:49;100678.28;;;26.40;100.00
9764;BME280;4921;43.214;27.936;2023-07-29T11:48:16;100665.25;;;26.37;100.00
9764;BME280;4921;43.214;27.936;2023-07-29T11:50:43;100671.94;;;26.10;100.00
9764;BME280;4921;43.214;27.936;2023-07-29T11:53:13;100669.69;;;26.07;100.00
9764;BME280;4921;43.214;27.936;2023-07-29T11:55:41;100672.22;;;26.02;100.00
9764;BME280;4921;43.214;27.936;2023-07-29T11:58:08;100676.78;;;25.77;100.00
9764;BME280;4921;43.214;27.936;2023-07-29T12:00:35;100668.00;;;25.88;100.00
9764;BME280;4921;43.214;27.936;2023-07-29T12:03:02;100655.78;;;25.85;100.00
9764;BME280;4921;43.214;27.936;2023-07-29T12:05:30;100658.00;;;25.88;100.00
9764;BME280;4921;43.214;27.936;2023-07-29T12:07:57;100662.91;;;25.98;100.00
9764;BME280;4921;43.214;27.936;2023-07-29T12:10:26;100657.91;;;25.77;100.00
9764;BME280;4921;43.214;27.936;2023-07-29T12:12:53;100657.97;;;25.70;100.00
9764;BME280;4921;43.214;27.936;2023-07-29T12:15:24;100663.75;;;25.73;100.00
9764;BME280;4921;43.214;27.936;2023-07-29T12:17:56;100674.75;;;25.72;100.00
9764;BME280;4921;43.214;27.936;2023-07-29T12:20:23;100658.16;;;25.68;100.00
9764;BME280;4921;43.214;27.936;2023-07-29T12:22:54;100658.06;;;25.82;100.00
9764;BME280;4921;43.214;27.936;2023-07-29T12:25:21;100657.25;;;25.81;100.00
9764;BME280;4921;43.214;27.936;2023-07-29T12:27:50;100667.09;;;25.94;100.00
9764;BME280;4921;43.214;27.936;2023-07-29T12:30:20;100662.19;;;25.59;100.00
9764;BME280;4921;43.214;27.936;2023-07-29T12:32:47;100664.53;;;25.49;100.00
9764;BME280;4921;43.214;27.936;2023-07-29T12:35:14;100664.63;;;25.67;100.00
9764;BME280;4921;43.214;27.936;2023-07-29T12:37:42;100658.94;;;25.76;100.00
9764;BME280;4921;43.214;27.936;2023-07-29T12:40:21;100659.13;;;25.81;100.00
9764;BME280;4921;43.214;27.936;2023-07-29T12:42:50;100654.41;;;25.76;100.00
9764;BME280;4921;43.214;27.936;2023-07-29T12:45:18;100660.50;;;25.65;100.00
9764;BME280;4921;43.214;27.936;2023-07-29T12:47:45;100661.31;;;25.65;100.00
9764;BME280;4921;43.214;27.936;2023-07-29T12:50:12;100665.78;;;25.78;100.00
9764;BME280;4921;43.214;27.936;2023-07-29T12:52:39;100664.41;;;25.94;100.00
9764;BME280;4921;43.214;27.936;2023-07-29T12:55:06;100653.44;;;25.89;100.00
9764;BME280;4921;43.214;27.936;2023-07-29T12:57:52;100663.75;;;25.98;100.00